createdAt,value
2023-02-14T00:01:56.864Z,56.59
2023-02-14T00:04:25.378Z,58.89
2023-02-14T00:06:53.393Z,59.78
2023-02-14T00:09:21.502Z,59.77
2023-02-14T00:11:51.775Z,64.48
2023-02-14T00:14:38.876Z,73.28
2023-02-14T00:17:06.933Z,63.94
2023-02-14T00:19:36.054Z,54.92
2023-02-14T00:22:05.992Z,52.83
2023-02-14T00:24:34.203Z,56.68
2023-02-14T00:27:01.963Z,59.13
2023-02-14T00:29:32.632Z,60.47
2023-02-14T00:32:01.607Z,63.42
2023-02-14T00:34:33.359Z,71.04
2023-02-14T00:37:01.327Z,66.96
2023-02-14T00:39:30.741Z,57.35
2023-02-14T00:41:58.404Z,53.47
2023-02-14T00:44:26.577Z,55.79
2023-02-14T00:46:54.617Z,57.45
2023-02-14T00:49:22.468Z,60.50
2023-02-14T00:51:50.385Z,64.25
2023-02-14T00:54:18.196Z,64.40
2023-02-14T00:56:45.979Z,62.70
2023-02-14T00:59:13.933Z,59.89
2023-02-14T01:01:41.890Z,53.48
2023-02-14T01:04:09.912Z,53.39
2023-02-14T01:06:37.940Z,54.52
2023-02-14T01:09:05.950Z,56.30
2023-02-14T01:11:34.272Z,59.20
2023-02-14T01:14:02.827Z,64.77
2023-02-14T01:16:33.535Z,65.27
2023-02-14T01:19:01.963Z,63.56
2023-02-14T01:21:34.087Z,60.59
2023-02-14T01:24:07.826Z,52.68
2023-02-14T01:26:36.860Z,50.51
2023-02-14T01:29:05.999Z,51.83
2023-02-14T01:31:38.961Z,53.80
2023-02-14T01:34:07.557Z,55.01
2023-02-14T01:36:39.736Z,56.55
2023-02-14T01:39:13.906Z,58.06
2023-02-14T01:41:51.497Z,61.24
2023-02-14T01:44:19.608Z,71.75
2023-02-14T01:46:47.610Z,67.87
2023-02-14T01:49:22.277Z,59.17
2023-02-14T01:52:03.880Z,51.01
2023-02-14T01:54:38.670Z,51.96
2023-02-14T01:57:12.345Z,53.79
2023-02-14T01:59:51.185Z,54.93
2023-02-14T02:02:24.325Z,56.34
2023-02-14T02:04:57.083Z,58.80
2023-02-14T02:07:29.446Z,60.69
2023-02-14T02:10:03.487Z,61.12
2023-02-14T02:12:35.783Z,66.97
2023-02-14T02:15:06.294Z,68.38
2023-02-14T02:18:22.141Z,65.82
2023-02-14T02:21:12.120Z,58.79
2023-02-14T02:23:58.968Z,49.19
2023-02-14T02:26:58.070Z,50.42
2023-02-14T02:30:05.896Z,54.21
2023-02-14T02:33:07.034Z,56.26
2023-02-14T02:36:29.757Z,57.75
2023-02-14T02:39:50.886Z,58.10
2023-02-14T02:42:46.091Z,58.61
2023-02-14T02:45:31.841Z,59.46
2023-02-14T02:48:15.190Z,59.62
2023-02-14T02:51:12.685Z,60.41
2023-02-14T02:53:53.087Z,60.65
2023-02-14T02:56:56.530Z,66.83
2023-02-14T02:59:31.183Z,74.50
2023-02-14T03:02:14.308Z,64.17
2023-02-14T03:04:56.360Z,53.78
2023-02-14T03:07:40.549Z,50.97
2023-02-14T03:10:13.210Z,52.98
2023-02-14T03:12:49.228Z,53.70
2023-02-14T03:15:50.314Z,55.16
2023-02-14T03:18:38.155Z,57.84
2023-02-14T03:21:33.832Z,58.89
2023-02-14T03:24:25.968Z,59.97
2023-02-14T03:27:16.794Z,66.56
2023-02-14T03:30:14.979Z,71.49
2023-02-14T03:32:51.919Z,67.12
2023-02-14T03:36:38.368Z,55.54
2023-02-14T03:39:18.577Z,49.59
2023-02-14T03:42:09.971Z,52.40
2023-02-14T03:44:40.920Z,53.83
2023-02-14T03:47:17.807Z,55.56
2023-02-14T03:50:16.126Z,56.66
2023-02-14T03:52:50.927Z,57.52
2023-02-14T03:55:27.925Z,57.81
2023-02-14T03:58:18.511Z,56.75
2023-02-14T04:00:50.439Z,58.83
2023-02-14T04:03:20.972Z,59.55
2023-02-14T04:05:52.725Z,60.27
2023-02-14T04:08:29.766Z,61.15
2023-02-14T04:11:02.071Z,67.45
2023-02-14T04:13:30.877Z,76.39
2023-02-14T04:16:01.732Z,67.78
2023-02-14T04:18:48.806Z,58.92
2023-02-14T04:21:19.225Z,50.80
2023-02-14T04:23:47.360Z,50.56
2023-02-14T04:26:15.133Z,52.03
2023-02-14T04:28:43.940Z,54.50
2023-02-14T04:31:11.865Z,56.38
2023-02-14T04:33:42.453Z,57.10
2023-02-14T04:36:10.714Z,57.76
2023-02-14T04:38:41.114Z,58.64
2023-02-14T04:41:09.776Z,59.22
2023-02-14T04:43:37.812Z,60.52
2023-02-14T04:46:05.627Z,61.48
2023-02-14T04:48:33.435Z,70.82
2023-02-14T04:51:01.493Z,75.51
2023-02-14T04:53:29.847Z,67.57
2023-02-14T04:55:57.666Z,61.52
2023-02-14T04:58:25.652Z,55.18
2023-02-14T05:00:53.583Z,52.20
2023-02-14T05:03:21.525Z,53.69
2023-02-14T05:05:49.203Z,55.90
2023-02-14T05:08:16.968Z,57.24
2023-02-14T05:10:45.177Z,57.00
2023-02-14T05:13:12.887Z,57.72
2023-02-14T05:15:40.681Z,59.33
2023-02-14T05:18:09.359Z,60.14
2023-02-14T05:20:37.264Z,60.73
2023-02-14T05:23:14.076Z,61.03
2023-02-14T05:25:42.413Z,61.57
2023-02-14T05:28:11.343Z,66.18
2023-02-14T05:30:39.450Z,74.44
2023-02-14T05:33:07.942Z,68.03
2023-02-14T05:35:37.144Z,59.40
2023-02-14T05:38:05.589Z,53.29
2023-02-14T05:40:33.700Z,52.17
2023-02-14T05:43:01.579Z,52.55
2023-02-14T05:45:29.381Z,55.13
2023-02-14T05:47:57.084Z,56.08
2023-02-14T05:50:24.793Z,58.12
2023-02-14T05:52:54.462Z,59.78
2023-02-14T05:55:23.028Z,61.16
2023-02-14T05:57:50.824Z,65.73
2023-02-14T06:00:21.311Z,72.27
2023-02-14T06:02:49.355Z,68.13
2023-02-14T06:05:18.750Z,62.10
2023-02-14T06:07:52.907Z,54.11
2023-02-14T06:10:29.312Z,51.75
2023-02-14T06:12:57.150Z,53.57
2023-02-14T06:15:25.085Z,54.38
2023-02-14T06:17:56.588Z,57.86
2023-02-14T06:20:25.713Z,59.37
2023-02-14T06:22:54.513Z,60.49
2023-02-14T06:25:24.489Z,60.53
2023-02-14T06:27:58.886Z,63.71
2023-02-14T06:30:28.019Z,74.10
2023-02-14T06:32:56.197Z,71.10
2023-02-14T06:35:25.330Z,64.38
2023-02-14T06:37:53.093Z,57.63
2023-02-14T06:40:21.195Z,51.34
2023-02-14T06:42:50.774Z,51.54
2023-02-14T06:45:20.478Z,53.67
2023-02-14T06:47:48.222Z,54.05
2023-02-14T06:50:18.288Z,55.67
2023-02-14T06:52:46.514Z,57.10
2023-02-14T06:55:15.380Z,58.06
2023-02-14T06:57:43.246Z,58.75
2023-02-14T07:00:14.913Z,59.22
2023-02-14T07:02:43.076Z,59.34
2023-02-14T07:05:10.969Z,60.20
2023-02-14T07:07:38.807Z,60.89
2023-02-14T07:10:07.559Z,60.81
2023-02-14T07:12:35.760Z,61.47
2023-02-14T07:15:03.852Z,68.11
2023-02-14T07:17:31.738Z,76.78
2023-02-14T07:19:59.456Z,69.35
2023-02-14T07:22:30.372Z,62.78
2023-02-14T07:24:58.467Z,56.01
2023-02-14T07:27:27.781Z,51.67
2023-02-14T07:29:55.951Z,53.78
2023-02-14T07:32:25.072Z,56.10
2023-02-14T07:34:53.079Z,57.36
2023-02-14T07:37:21.112Z,57.38
2023-02-14T07:39:48.948Z,59.12
2023-02-14T07:42:17.174Z,60.33
2023-02-14T07:44:46.637Z,60.57
2023-02-14T07:47:14.389Z,61.92
2023-02-14T07:49:42.406Z,69.78
2023-02-14T07:52:10.178Z,73.43
2023-02-14T07:54:39.921Z,67.64
2023-02-14T07:57:07.784Z,65.53
2023-02-14T07:59:36.435Z,59.91
2023-02-14T08:02:06.355Z,50.78
2023-02-14T08:04:34.171Z,50.21
2023-02-14T08:07:02.152Z,51.03
2023-02-14T08:09:37.700Z,53.47
2023-02-14T08:12:24.564Z,55.31
2023-02-14T08:14:53.033Z,55.58
2023-02-14T08:17:22.077Z,58.14
2023-02-14T08:19:49.760Z,58.41
2023-02-14T08:22:19.534Z,59.58
2023-02-14T08:24:47.300Z,61.16
2023-02-14T08:27:14.942Z,60.58
2023-02-14T08:29:43.738Z,61.49
2023-02-14T08:32:11.564Z,65.42
2023-02-14T08:34:39.854Z,74.02
2023-02-14T08:37:07.627Z,70.24
2023-02-14T08:39:36.873Z,61.12
2023-02-14T08:42:05.647Z,55.00
2023-02-14T08:44:34.560Z,53.33
2023-02-14T08:47:02.721Z,55.16
2023-02-14T08:49:30.464Z,57.23
2023-02-14T08:51:59.321Z,57.65
2023-02-14T08:54:27.679Z,61.34
2023-02-14T08:56:55.494Z,69.54
2023-02-14T08:59:24.136Z,68.02
2023-02-14T09:01:52.757Z,62.02
2023-02-14T09:04:20.612Z,57.37
2023-02-14T09:06:48.510Z,50.75
2023-02-14T09:09:17.643Z,51.14
2023-02-14T09:11:45.724Z,51.86
2023-02-14T09:14:16.376Z,54.31
2023-02-14T09:16:45.863Z,54.62
2023-02-14T09:19:13.964Z,56.37
2023-02-14T09:21:42.755Z,58.30
2023-02-14T09:24:10.556Z,57.57
2023-02-14T09:26:41.848Z,59.47
2023-02-14T09:29:11.675Z,60.15
2023-02-14T09:31:40.526Z,67.14
2023-02-14T09:34:08.509Z,70.06
2023-02-14T09:36:54.946Z,59.73
2023-02-14T09:39:22.738Z,52.75
2023-02-14T09:42:26.829Z,52.29
2023-02-14T09:45:04.320Z,56.33
2023-02-14T09:48:06.389Z,59.18
2023-02-14T09:50:48.958Z,57.40
2023-02-14T09:53:43.965Z,58.56
2023-02-14T09:56:50.610Z,58.73
2023-02-14T09:59:48.812Z,60.44
2023-02-14T10:02:44.554Z,64.77
2023-02-14T10:06:01.262Z,68.55
2023-02-14T10:08:48.370Z,56.97
2023-02-14T10:11:23.053Z,49.40
2023-02-14T10:14:11.125Z,51.35
2023-02-14T10:16:51.744Z,52.13
2023-02-14T10:19:32.409Z,57.28
2023-02-14T10:22:32.194Z,56.58
2023-02-14T10:25:43.567Z,56.98
2023-02-14T10:28:16.851Z,56.18
2023-02-14T10:31:12.328Z,57.15
2023-02-14T10:33:52.133Z,58.26
2023-02-14T10:36:56.344Z,58.78
2023-02-14T10:39:55.109Z,59.96
2023-02-14T10:43:20.977Z,58.90
2023-02-14T10:46:01.536Z,58.73
2023-02-14T10:49:02.691Z,59.89
2023-02-14T10:52:08.255Z,59.20
2023-02-14T10:54:41.776Z,59.00
2023-02-14T10:57:36.548Z,59.42
2023-02-14T11:00:23.710Z,59.77
2023-02-14T11:02:59.506Z,59.98
2023-02-14T11:05:39.300Z,59.44
2023-02-14T11:08:42.811Z,60.37
2023-02-14T11:11:43.864Z,60.64
2023-02-14T11:14:28.905Z,62.63
2023-02-14T11:16:59.634Z,66.20
2023-02-14T11:19:37.278Z,58.14
2023-02-14T11:22:10.391Z,50.06
2023-02-14T11:24:42.336Z,50.23
2023-02-14T11:27:10.979Z,53.01
2023-02-14T11:29:40.014Z,52.66
2023-02-14T11:32:16.867Z,55.96
2023-02-14T11:35:24.352Z,54.30
2023-02-14T11:37:58.052Z,54.79
2023-02-14T11:40:29.998Z,56.37
2023-02-14T11:43:14.305Z,58.19
2023-02-14T11:45:48.021Z,55.84
2023-02-14T11:48:37.627Z,56.31
2023-02-14T11:51:14.118Z,55.88
2023-02-14T11:53:52.145Z,56.11
2023-02-14T11:56:22.203Z,56.67
2023-02-14T11:59:01.396Z,56.54
2023-02-14T12:01:36.449Z,56.95
2023-02-14T12:04:19.870Z,56.39
2023-02-14T12:06:48.165Z,56.11
2023-02-14T12:09:22.154Z,55.71
2023-02-14T12:12:16.924Z,55.54
2023-02-14T12:14:45.822Z,55.30
2023-02-14T12:17:35.685Z,55.37
2023-02-14T12:20:25.512Z,57.56
2023-02-14T12:23:15.445Z,59.57
2023-02-14T12:25:51.840Z,58.32
2023-02-14T12:28:35.424Z,56.77
2023-02-14T12:31:03.655Z,56.51
2023-02-14T12:33:32.821Z,58.44
2023-02-14T12:36:48.520Z,58.38
2023-02-14T12:39:49.011Z,58.60
2023-02-14T12:42:32.964Z,59.14
2023-02-14T12:45:25.938Z,59.95
2023-02-14T12:48:20.345Z,61.21
2023-02-14T12:51:11.129Z,61.42
2023-02-14T12:53:49.133Z,61.88
2023-02-14T12:56:46.867Z,66.66
2023-02-14T13:00:15.603Z,66.16
2023-02-14T13:03:23.310Z,55.78
2023-02-14T13:06:28.361Z,54.00
2023-02-14T13:09:32.895Z,57.03
2023-02-14T13:12:22.906Z,59.41
2023-02-14T13:15:28.929Z,60.42
2023-02-14T13:18:49.804Z,62.50
2023-02-14T13:21:31.798Z,63.32
2023-02-14T13:24:41.533Z,57.56
2023-02-14T13:27:22.186Z,56.19
2023-02-14T13:30:33.809Z,57.30
2023-02-14T13:33:35.864Z,60.29
2023-02-14T13:36:09.290Z,62.81
2023-02-14T13:38:57.221Z,64.42
2023-02-14T13:41:53.213Z,57.88
2023-02-14T13:44:53.281Z,55.62
2023-02-14T13:47:27.223Z,58.18
2023-02-14T13:50:02.038Z,60.94
2023-02-14T13:52:49.203Z,63.42
2023-02-14T13:55:27.654Z,62.63
2023-02-14T13:58:18.354Z,57.45
2023-02-14T14:00:49.630Z,58.46
2023-02-14T14:03:30.228Z,62.05
2023-02-14T14:06:13.633Z,63.24
2023-02-14T14:08:52.307Z,59.35
2023-02-14T14:11:26.547Z,58.10
2023-02-14T14:13:59.415Z,61.36
2023-02-14T14:16:36.596Z,63.89
2023-02-14T14:19:30.518Z,61.28
2023-02-14T14:22:14.769Z,55.93
2023-02-14T14:25:00.563Z,58.25
2023-02-14T14:27:47.753Z,61.06
2023-02-14T14:30:31.010Z,64.36
2023-02-14T14:33:23.713Z,59.52
2023-02-14T14:35:59.780Z,56.20
2023-02-14T14:38:29.788Z,59.46
2023-02-14T14:40:59.903Z,63.16
2023-02-14T14:43:33.943Z,63.28
2023-02-14T14:46:04.055Z,59.02
2023-02-14T14:48:44.037Z,57.14
2023-02-14T14:51:28.451Z,60.18
2023-02-14T14:54:07.769Z,64.19
2023-02-14T14:56:52.362Z,65.54
2023-02-14T14:59:39.377Z,61.03
2023-02-14T15:02:28.008Z,53.65
2023-02-14T15:04:56.041Z,54.37
2023-02-14T15:07:36.753Z,56.23
2023-02-14T15:10:23.759Z,61.98
2023-02-14T15:13:14.358Z,65.65
2023-02-14T15:15:49.578Z,65.14
2023-02-14T15:18:21.191Z,60.77
2023-02-14T15:20:54.280Z,53.76
2023-02-14T15:23:25.549Z,54.13
2023-02-14T15:25:53.460Z,58.94
2023-02-14T15:28:34.450Z,61.50
2023-02-14T15:31:06.981Z,65.27
2023-02-14T15:33:36.260Z,61.24
2023-02-14T15:36:18.987Z,56.37
2023-02-14T15:38:47.466Z,57.45
2023-02-14T15:41:17.426Z,59.76
2023-02-14T15:43:53.872Z,64.16
2023-02-14T15:46:26.891Z,66.83
2023-02-14T15:49:00.850Z,61.58
2023-02-14T15:51:36.704Z,54.64
2023-02-14T15:54:20.150Z,55.85
2023-02-14T15:56:54.153Z,56.74
2023-02-14T15:59:29.678Z,59.43
2023-02-14T16:02:16.037Z,62.62
2023-02-14T16:04:43.997Z,67.78
2023-02-14T16:07:29.799Z,68.56
2023-02-14T16:10:38.891Z,62.79
2023-02-14T16:13:22.483Z,52.36
2023-02-14T16:16:17.596Z,51.44
2023-02-14T16:18:56.934Z,52.72
2023-02-14T16:21:33.503Z,60.05
2023-02-14T16:24:13.402Z,63.27
2023-02-14T16:26:44.922Z,71.15
2023-02-14T16:29:17.166Z,63.00
2023-02-14T16:32:15.837Z,61.55
2023-02-14T16:34:39.657Z,51.68
2023-02-14T16:37:21.951Z,49.24
2023-02-14T16:39:57.695Z,53.45
2023-02-14T16:42:26.309Z,54.88
2023-02-14T16:44:58.033Z,57.12
2023-02-14T16:47:27.827Z,57.88
2023-02-14T16:49:57.381Z,59.73
2023-02-14T16:52:28.227Z,64.95
2023-02-14T16:54:57.180Z,73.05
2023-02-14T16:57:34.994Z,69.54
2023-02-14T17:00:06.554Z,62.09
2023-02-14T17:02:36.234Z,55.00
2023-02-14T17:05:05.134Z,51.40
2023-02-14T17:07:34.903Z,54.63
2023-02-14T17:10:10.300Z,57.26
2023-02-14T17:12:44.430Z,57.13
2023-02-14T17:15:18.549Z,58.38
2023-02-14T17:17:49.195Z,59.02
2023-02-14T17:20:20.265Z,60.20
2023-02-14T17:22:49.519Z,67.98
2023-02-14T17:25:17.435Z,74.67
2023-02-14T17:27:46.603Z,69.87
2023-02-14T17:30:15.409Z,62.51
2023-02-14T17:32:45.179Z,52.62
2023-02-14T17:35:14.734Z,51.35
2023-02-14T17:37:43.417Z,54.28
2023-02-14T17:40:14.569Z,55.90
2023-02-14T17:42:42.383Z,57.27
2023-02-14T17:45:11.962Z,58.36
2023-02-14T17:47:41.169Z,58.69
2023-02-14T17:50:10.092Z,60.87
2023-02-14T17:52:37.960Z,61.21
2023-02-14T17:55:09.984Z,68.05
2023-02-14T17:57:41.380Z,74.09
2023-02-14T18:00:12.201Z,68.31
2023-02-14T18:02:40.726Z,61.85
2023-02-14T18:05:08.578Z,54.62
2023-02-14T18:07:37.056Z,51.94
2023-02-14T18:10:06.430Z,52.76
2023-02-14T18:12:36.808Z,55.90
2023-02-14T18:15:06.334Z,58.53
2023-02-14T18:17:34.078Z,58.61
2023-02-14T18:20:01.916Z,59.79
2023-02-14T18:22:30.362Z,61.58
2023-02-14T18:24:58.894Z,69.94
2023-02-14T18:27:26.773Z,72.91
2023-02-14T18:29:54.776Z,69.21
2023-02-14T18:32:23.111Z,63.92
2023-02-14T18:34:51.288Z,55.62
2023-02-14T18:37:20.122Z,52.53
2023-02-14T18:39:47.997Z,53.80
2023-02-14T18:42:16.231Z,55.60
2023-02-14T18:44:44.436Z,57.49
2023-02-14T18:47:12.386Z,58.20
2023-02-14T18:49:41.217Z,61.02
2023-02-14T18:52:09.113Z,67.98
2023-02-14T18:54:37.206Z,72.49
2023-02-14T18:57:05.444Z,65.24
2023-02-14T18:59:33.416Z,59.61
2023-02-14T19:02:01.136Z,52.82
2023-02-14T19:04:29.453Z,52.79
2023-02-14T19:06:57.166Z,54.63
2023-02-14T19:09:28.620Z,56.70
2023-02-14T19:12:00.256Z,58.51
2023-02-14T19:14:28.215Z,59.79
2023-02-14T19:16:55.997Z,60.49
2023-02-14T19:19:24.578Z,67.46
2023-02-14T19:21:53.519Z,71.70
2023-02-14T19:24:25.878Z,63.59
2023-02-14T19:26:56.922Z,54.85
2023-02-14T19:29:25.450Z,53.04
2023-02-14T19:31:56.489Z,54.43
2023-02-14T19:34:29.589Z,56.86
2023-02-14T19:37:00.692Z,58.49
2023-02-14T19:39:31.599Z,58.93
2023-02-14T19:42:01.303Z,60.43
2023-02-14T19:44:31.216Z,68.05
2023-02-14T19:47:04.190Z,70.23
2023-02-14T19:49:34.324Z,61.26
2023-02-14T19:52:09.487Z,52.74
2023-02-14T19:54:43.064Z,51.95
2023-02-14T19:57:14.288Z,53.51
2023-02-14T19:59:43.237Z,56.06
2023-02-14T20:02:17.270Z,56.51
2023-02-14T20:04:46.093Z,57.97
2023-02-14T20:07:14.212Z,59.59
2023-02-14T20:09:41.923Z,67.30
2023-02-14T20:12:09.945Z,71.32
2023-02-14T20:14:50.285Z,63.47
2023-02-14T20:17:19.632Z,53.54
2023-02-14T20:19:48.916Z,52.42
2023-02-14T20:22:16.626Z,54.49
2023-02-14T20:24:45.807Z,56.20
2023-02-14T20:27:13.864Z,57.17
2023-02-14T20:29:45.580Z,57.95
2023-02-14T20:32:16.443Z,58.67
2023-02-14T20:34:45.996Z,60.35
2023-02-14T20:37:16.561Z,66.26
2023-02-14T20:39:44.286Z,70.90
2023-02-14T20:42:12.340Z,63.25
2023-02-14T20:44:41.556Z,54.99
2023-02-14T20:47:11.116Z,52.50
2023-02-14T20:49:40.171Z,54.34
2023-02-14T20:52:07.975Z,55.78
2023-02-14T20:54:38.916Z,55.50
2023-02-14T20:57:06.933Z,57.61
2023-02-14T20:59:34.862Z,58.36
2023-02-14T21:02:02.718Z,64.31
2023-02-14T21:04:30.613Z,69.17
2023-02-14T21:07:04.335Z,65.79
2023-02-14T21:09:32.984Z,57.65
2023-02-14T21:12:00.723Z,51.03
2023-02-14T21:14:28.629Z,52.07
2023-02-14T21:16:56.689Z,54.03
2023-02-14T21:19:25.672Z,54.48
2023-02-14T21:21:54.574Z,58.11
2023-02-14T21:24:22.280Z,58.15
2023-02-14T21:26:50.459Z,60.93
2023-02-14T21:29:18.370Z,68.99
2023-02-14T21:31:48.011Z,69.44
2023-02-14T21:34:17.464Z,61.24
2023-02-14T21:36:46.196Z,53.37
2023-02-14T21:39:14.272Z,51.27
2023-02-14T21:41:42.028Z,53.68
2023-02-14T21:44:29.917Z,55.88
2023-02-14T21:46:57.744Z,56.64
2023-02-14T21:49:44.516Z,58.19
2023-02-14T21:52:12.284Z,58.41
2023-02-14T21:54:40.551Z,60.51
2023-02-14T21:57:09.299Z,68.29
2023-02-14T21:59:38.484Z,70.97
2023-02-14T22:02:07.261Z,65.07
2023-02-14T22:04:36.088Z,58.38
2023-02-14T22:07:04.547Z,52.17
2023-02-14T22:09:32.299Z,52.90
2023-02-14T22:12:00.026Z,55.56
2023-02-14T22:14:31.165Z,56.26
2023-02-14T22:17:00.622Z,58.48
2023-02-14T22:19:28.794Z,66.81
2023-02-14T22:21:56.799Z,68.14
2023-02-14T22:24:24.533Z,61.78
2023-02-14T22:26:52.782Z,55.22
2023-02-14T22:29:21.083Z,52.47
2023-02-14T22:31:49.300Z,53.93
2023-02-14T22:34:18.761Z,56.25
2023-02-14T22:36:48.671Z,58.18
2023-02-14T22:39:17.142Z,59.92
2023-02-14T22:41:46.707Z,64.12
2023-02-14T22:44:16.534Z,70.80
2023-02-14T22:46:44.432Z,67.35
2023-02-14T22:49:13.822Z,62.90
2023-02-14T22:51:44.120Z,54.96
2023-02-14T22:54:16.459Z,52.38
2023-02-14T22:56:48.478Z,54.35
2023-02-14T22:59:28.671Z,56.53
2023-02-14T23:01:56.919Z,58.93
2023-02-14T23:04:29.384Z,60.40
2023-02-14T23:06:58.168Z,66.03
2023-02-14T23:09:29.255Z,70.08
2023-02-14T23:11:56.992Z,64.91
2023-02-14T23:14:43.578Z,61.27
2023-02-14T23:17:18.999Z,55.82
2023-02-14T23:20:06.517Z,53.42
2023-02-14T23:22:38.746Z,54.50
2023-02-14T23:25:11.171Z,56.25
2023-02-14T23:27:44.126Z,57.42
2023-02-14T23:30:18.828Z,59.26
2023-02-14T23:32:47.040Z,60.60
2023-02-14T23:35:18.692Z,67.60
2023-02-14T23:37:46.622Z,71.92
2023-02-14T23:40:15.092Z,67.42
2023-02-14T23:42:42.786Z,59.51
2023-02-14T23:45:30.056Z,56.19
2023-02-14T23:48:05.164Z,57.64
2023-02-14T23:50:32.900Z,59.49
2023-02-14T23:53:01.774Z,60.28
2023-02-14T23:55:30.110Z,63.39
2023-02-14T23:57:57.971Z,70.66
